Time;durP1;ratioP1;P1;durP2;ratioP2;P2;SDS_P1;SDS_P2;PMS_P1;PMS_P2;Temp;Humidity;BMP_temperature;BMP_pressure;BME280_temperature;BME280_humidity;BME280_pressure;Samples;Min_cycle;Max_cycle;Signal;HPM_P1;HPM_P2
2022/09/14 00:01:13;;;;;;;1.42;1.15;;;25.00;69.90;;;;;;4984052;28;20382;-53
2022/09/14 00:03:38;;;;;;;0.70;0.70;;;25.00;70.00;;;;;;4984696;28;20121;-53
2022/09/14 00:06:05;;;;;;;0.55;0.55;;;25.00;69.80;;;;;;4985381;28;20117;-63
2022/09/14 00:08:31;;;;;;;0.75;0.75;;;25.00;69.80;;;;;;4985153;28;20043;-57
2022/09/14 00:10:57;;;;;;;0.65;0.57;;;25.00;69.70;;;;;;4986127;28;20046;-60
2022/09/14 00:13:22;;;;;;;0.60;0.60;;;25.00;69.60;;;;;;4997772;28;20103;-52
2022/09/14 00:15:50;;;;;;;0.60;0.60;;;25.00;69.80;;;;;;4984714;28;20074;-45
2022/09/14 00:18:16;;;;;;;0.80;0.80;;;25.00;69.80;;;;;;4984280;28;20050;-48
2022/09/14 00:20:42;;;;;;;0.77;0.77;;;25.00;69.70;;;;;;4984733;28;20069;-53
2022/09/14 00:23:07;;;;;;;0.70;0.70;;;24.90;70.60;;;;;;4985292;28;20741;-52
2022/09/14 00:25:33;;;;;;;0.80;0.68;;;25.00;69.60;;;;;;5005048;28;20131;-58
2022/09/14 00:27:59;;;;;;;1.10;0.77;;;25.10;69.30;;;;;;4989603;28;20504;-58
2022/09/14 00:30:24;;;;;;;0.80;0.80;;;25.10;69.20;;;;;;4992263;28;20046;-57
2022/09/14 00:32:50;;;;;;;0.68;0.68;;;25.10;69.30;;;;;;4988245;28;20081;-57
2022/09/14 00:35:16;;;;;;;0.80;0.80;;;25.10;69.30;;;;;;4985121;28;20054;-60
2022/09/14 00:37:41;;;;;;;1.10;0.73;;;25.00;69.30;;;;;;5002724;28;20049;-58
2022/09/14 00:40:08;;;;;;;1.52;0.90;;;25.10;69.20;;;;;;4984845;28;20042;-58
2022/09/14 00:42:33;;;;;;;0.98;0.88;;;25.10;69.10;;;;;;4999319;28;20141;-51
2022/09/14 00:45:02;;;;;;;0.70;0.70;;;25.10;70.00;;;;;;4984048;28;20168;-55
2022/09/14 00:47:28;;;;;;;0.90;0.80;;;25.10;69.10;;;;;;4989664;28;20113;-61
2022/09/14 00:49:54;;;;;;;0.63;0.60;;;25.10;69.20;;;;;;4983698;28;20100;-59
2022/09/14 00:52:23;;;;;;;1.40;0.70;;;25.00;69.10;;;;;;4994264;28;20042;-51
2022/09/14 00:54:54;;;;;;;0.70;0.70;;;25.00;69.40;;;;;;4988542;28;20038;-54
2022/09/14 00:57:20;;;;;;;0.60;0.60;;;25.00;69.30;;;;;;4992397;28;20548;-43
2022/09/14 00:59:47;;;;;;;0.85;0.77;;;25.00;69.40;;;;;;4984182;28;20046;-44
2022/09/14 01:02:13;;;;;;;0.50;0.50;;;25.00;69.30;;;;;;4986298;28;20053;-42
2022/09/14 01:04:39;;;;;;;0.77;0.73;;;25.00;69.20;;;;;;4985966;28;20047;-43
2022/09/14 01:07:32;;;;;;;1.20;0.63;;;25.00;69.20;;;;;;4994154;28;20129;-43
2022/09/14 01:10:07;;;;;;;0.82;0.80;;;25.00;69.20;;;;;;4982811;28;20043;-44
2022/09/14 01:12:41;;;;;;;0.85;0.60;;;25.00;69.10;;;;;;4987042;28;20070;-43
2022/09/14 01:15:30;;;;;;;0.55;0.55;;;25.00;69.00;;;;;;4983360;28;20597;-43
2022/09/14 01:18:31;;;;;;;0.60;0.60;;;25.00;69.10;;;;;;4986695;28;20125;-43
2022/09/14 01:20:59;;;;;;;1.77;1.00;;;25.00;69.10;;;;;;4984796;28;20046;-43
2022/09/14 01:23:36;;;;;;;0.50;0.50;;;25.00;69.00;;;;;;4990250;28;20046;-43
2022/09/14 01:26:39;;;;;;;0.63;0.63;;;25.00;69.00;;;;;;4983662;28;20039;-44
2022/09/14 01:29:33;;;;;;;0.68;0.68;;;25.00;69.20;;;;;;4991022;28;20058;-45
2022/09/14 01:32:05;;;;;;;1.70;0.63;;;25.00;69.00;;;;;;4980468;28;20043;-43
2022/09/14 01:34:52;;;;;;;1.40;0.70;;;25.00;69.00;;;;;;4992328;28;20516;-43
2022/09/14 01:37:26;;;;;;;0.55;0.55;;;25.00;69.00;;;;;;4995048;28;20035;-40
2022/09/14 01:39:58;;;;;;;2.40;0.60;;;25.00;69.00;;;;;;4983066;28;20054;-43
2022/09/14 01:42:25;;;;;;;0.70;0.70;;;25.00;68.90;;;;;;4987446;28;20043;-43
2022/09/14 01:44:53;;;;;;;0.82;0.63;;;25.00;68.90;;;;;;4982843;28;20564;-43
2022/09/14 01:47:35;;;;;;;0.70;0.70;;;25.00;68.80;;;;;;4972923;28;20337;-43
2022/09/14 01:50:14;;;;;;;1.15;0.68;;;25.00;68.70;;;;;;4984572;28;20119;-43
2022/09/14 01:52:43;;;;;;;0.50;0.50;;;25.00;68.80;;;;;;4983996;28;20558;-43
2022/09/14 01:55:24;;;;;;;0.70;0.60;;;25.00;69.60;;;;;;4988316;28;20042;-45
2022/09/14 01:58:15;;;;;;;0.60;0.60;;;25.00;68.60;;;;;;4969966;28;20413;-43
2022/09/14 02:00:44;;;;;;;1.30;0.70;;;25.00;68.70;;;;;;4987411;28;20050;-43
2022/09/14 02:03:16;;;;;;;0.52;0.52;;;25.00;68.70;;;;;;4981324;28;20053;-43
2022/09/14 02:05:47;;;;;;;0.60;0.60;;;25.00;68.80;;;;;;4981752;28;20046;-43
2022/09/14 02:08:13;;;;;;;0.57;0.55;;;25.00;68.70;;;;;;4977784;28;20122;-43
2022/09/14 02:10:39;;;;;;;0.60;0.60;;;25.00;68.80;;;;;;4984300;28;20141;-43
2022/09/14 02:13:06;;;;;;;1.33;0.60;;;25.00;68.70;;;;;;4995082;28;20574;-43
2022/09/14 02:15:31;;;;;;;1.23;0.70;;;25.00;68.80;;;;;;4987245;28;20516;-43
2022/09/14 02:17:57;;;;;;;0.90;0.90;;;25.00;68.80;;;;;;4989432;28;20038;-43
2022/09/14 02:20:33;;;;;;;0.95;0.60;;;25.00;68.80;;;;;;4990024;28;20046;-44
2022/09/14 02:22:58;;;;;;;1.02;0.68;;;25.00;68.70;;;;;;4983137;28;20479;-43
2022/09/14 02:25:24;;;;;;;0.73;0.73;;;25.00;68.70;;;;;;4986766;28;20058;-42
2022/09/14 02:27:50;;;;;;;0.68;0.65;;;24.90;68.80;;;;;;4998872;28;20042;-47
2022/09/14 02:30:16;;;;;;;0.80;0.60;;;25.00;68.60;;;;;;4981284;28;20156;-44
2022/09/14 02:32:44;;;;;;;1.25;0.70;;;25.00;68.50;;;;;;4981814;28;20061;-43
2022/09/14 02:35:17;;;;;;;0.50;0.40;;;25.00;68.50;;;;;;4977801;28;20121;-43
2022/09/14 02:38:04;;;;;;;0.47;0.47;;;25.00;68.50;;;;;;4987801;28;20528;-43
2022/09/14 02:40:54;;;;;;;0.47;0.47;;;25.00;68.60;;;;;;4982255;28;20404;-42
2022/09/14 02:43:47;;;;;;;0.60;0.60;;;25.00;68.60;;;;;;4982579;28;20050;-44
2022/09/14 02:46:23;;;;;;;0.88;0.68;;;25.00;68.40;;;;;;5003754;28;20058;-43
2022/09/14 02:49:03;;;;;;;0.60;0.60;;;25.00;68.50;;;;;;4998897;28;20038;-44
2022/09/14 02:52:03;;;;;;;0.50;0.50;;;25.00;68.40;;;;;;4981676;28;20097;-43
2022/09/14 02:54:37;;;;;;;0.43;0.43;;;25.00;68.40;;;;;;4990027;28;20239;-43
2022/09/14 02:57:03;;;;;;;0.57;0.50;;;25.00;68.40;;;;;;4994682;28;20045;-43
2022/09/14 02:59:29;;;;;;;0.80;0.63;;;24.90;68.40;;;;;;4982377;28;20047;-42
2022/09/14 03:01:55;;;;;;;0.47;0.47;;;25.00;68.50;;;;;;4993939;28;20508;-43
2022/09/14 03:04:21;;;;;;;0.63;0.63;;;25.00;68.40;;;;;;4979056;28;20068;-44
2022/09/14 03:06:46;;;;;;;0.70;0.45;;;25.00;68.40;;;;;;4981369;28;20500;-44
2022/09/14 03:09:12;;;;;;;0.68;0.60;;;24.90;68.40;;;;;;4988109;28;20045;-46
2022/09/14 03:11:38;;;;;;;0.60;0.50;;;25.00;68.40;;;;;;4991045;28;20046;-43
2022/09/14 03:14:03;;;;;;;0.60;0.50;;;24.90;68.40;;;;;;4981215;28;20051;-43
2022/09/14 03:16:29;;;;;;;0.60;0.60;;;24.90;68.40;;;;;;4981259;28;20058;-43
2022/09/14 03:18:54;;;;;;;0.50;0.50;;;24.90;68.40;;;;;;4999760;28;20065;-43
2022/09/14 03:21:20;;;;;;;0.65;0.65;;;24.90;68.50;;;;;;4980893;28;20051;-41
2022/09/14 03:23:47;;;;;;;0.50;0.50;;;24.90;68.40;;;;;;4979841;28;20037;-45
2022/09/14 03:26:17;;;;;;;0.50;0.40;;;24.90;68.40;;;;;;4981703;28;20058;-43
2022/09/14 03:28:43;;;;;;;0.60;0.60;;;24.90;68.40;;;;;;4981617;28;20042;-43
2022/09/14 03:31:09;;;;;;;0.50;0.50;;;24.90;68.40;;;;;;4979662;28;20466;-43
2022/09/14 03:33:35;;;;;;;0.40;0.40;;;25.00;68.30;;;;;;4985377;28;20038;-43
2022/09/14 03:36:12;;;;;;;1.88;0.73;;;25.00;68.40;;;;;;4982457;28;20084;-47
2022/09/14 03:38:38;;;;;;;0.43;0.43;;;24.90;68.30;;;;;;4978299;28;20046;-45
2022/09/14 03:41:10;;;;;;;0.52;0.50;;;24.90;68.30;;;;;;4982106;28;20410;-44
2022/09/14 03:43:35;;;;;;;0.35;0.35;;;24.90;68.50;;;;;;4980304;28;21074;-43
2022/09/14 03:46:06;;;;;;;0.50;0.50;;;24.90;68.40;;;;;;4981098;28;20084;-43
2022/09/14 03:48:31;;;;;;;0.40;0.40;;;24.90;68.40;;;;;;4984768;28;20045;-43
2022/09/14 03:51:00;;;;;;;1.15;0.60;;;24.90;68.40;;;;;;4987446;28;20035;-43
2022/09/14 03:53:25;;;;;;;0.50;0.47;;;24.90;68.40;;;;;;4993226;28;20054;-47
2022/09/14 03:55:51;;;;;;;0.77;0.77;;;24.90;68.40;;;;;;4985917;28;20039;-43
2022/09/14 03:58:16;;;;;;;0.43;0.43;;;24.90;68.40;;;;;;4987907;28;20113;-43
2022/09/14 04:00:42;;;;;;;0.60;0.50;;;24.90;68.40;;;;;;4987455;28;20099;-42
2022/09/14 04:03:07;;;;;;;0.30;0.30;;;24.90;68.40;;;;;;4982942;28;20394;-43
2022/09/14 04:05:33;;;;;;;0.50;0.43;;;24.90;68.40;;;;;;4983933;28;20042;-44
2022/09/14 04:07:59;;;;;;;0.95;0.50;;;24.90;68.40;;;;;;4984397;28;20941;-44
2022/09/14 04:10:24;;;;;;;0.40;0.40;;;24.90;68.40;;;;;;4986914;28;20493;-42
2022/09/14 04:12:50;;;;;;;0.50;0.50;;;24.90;68.40;;;;;;4987796;28;20054;-47
2022/09/14 04:15:15;;;;;;;0.47;0.40;;;24.90;68.30;;;;;;4984523;28;20038;-43
2022/09/14 04:17:41;;;;;;;0.30;0.30;;;24.90;68.40;;;;;;4983954;28;20085;-43
2022/09/14 04:20:07;;;;;;;0.45;0.40;;;24.90;68.20;;;;;;4981948;28;20042;-43
2022/09/14 04:22:33;;;;;;;0.45;0.30;;;24.90;68.20;;;;;;4999832;28;20118;-43
2022/09/14 04:24:58;;;;;;;0.55;0.52;;;24.90;68.30;;;;;;4988866;28;20125;-44
2022/09/14 04:27:24;;;;;;;0.35;0.35;;;24.90;68.20;;;;;;4987252;28;20046;-42
2022/09/14 04:29:50;;;;;;;0.50;0.50;;;24.90;68.30;;;;;;4986984;28;20138;-43
2022/09/14 04:32:15;;;;;;;0.40;0.40;;;24.90;68.10;;;;;;4984474;28;20112;-43
2022/09/14 04:34:41;;;;;;;0.60;0.40;;;24.90;68.10;;;;;;4991037;28;20034;-43
2022/09/14 04:37:07;;;;;;;0.40;0.40;;;24.90;68.20;;;;;;4995736;28;20484;-43
2022/09/14 04:39:32;;;;;;;0.40;0.40;;;24.90;68.80;;;;;;4983351;28;20033;-43
2022/09/14 04:41:58;;;;;;;0.32;0.32;;;24.90;68.10;;;;;;4981501;28;20046;-44
2022/09/14 04:44:23;;;;;;;0.82;0.32;;;24.90;68.10;;;;;;4983447;28;20051;-23
2022/09/14 04:46:49;;;;;;;0.70;0.30;;;24.90;68.10;;;;;;4984837;28;20397;-58
2022/09/14 04:49:17;;;;;;;0.60;0.50;;;24.90;68.20;;;;;;4986106;28;20509;-54
2022/09/14 04:51:43;;;;;;;1.05;0.40;;;24.90;68.10;;;;;;4983234;28;20623;-50
2022/09/14 04:54:11;;;;;;;0.45;0.45;;;24.90;68.00;;;;;;4634109;28;10000538;-48
2022/09/14 04:56:36;;;;;;;1.65;0.45;;;24.90;68.00;;;;;;4976431;28;20046;-44
2022/09/14 04:59:03;;;;;;;0.57;0.43;;;24.90;68.00;;;;;;4998804;28;20053;-42
2022/09/14 05:01:30;;;;;;;0.73;0.40;;;24.90;68.00;;;;;;4982442;28;20065;-47
2022/09/14 05:03:56;;;;;;;1.35;0.40;;;24.90;68.00;;;;;;4979452;28;20094;-56
2022/09/14 05:06:24;;;;;;;0.30;0.30;;;24.90;68.10;;;;;;4980723;28;20531;-51
2022/09/14 05:08:49;;;;;;;0.32;0.32;;;24.70;68.20;;;;;;4980231;28;20046;-51
2022/09/14 05:11:18;;;;;;;0.38;0.30;;;24.80;68.30;;;;;;4980142;28;20428;-45
2022/09/14 05:13:44;;;;;;;0.38;0.38;;;24.70;69.30;;;;;;4975989;28;20054;-47
2022/09/14 05:16:23;;;;;;;0.57;0.30;;;24.80;68.50;;;;;;4978550;28;20050;-52
2022/09/14 05:18:49;;;;;;;0.40;0.40;;;24.80;68.40;;;;;;4976838;28;20054;-51
2022/09/14 05:21:16;;;;;;;0.30;0.30;;;24.90;68.40;;;;;;4978112;28;20137;-46
2022/09/14 05:23:41;;;;;;;0.35;0.30;;;24.90;68.30;;;;;;4976990;28;20058;-59
2022/09/14 05:26:07;;;;;;;0.35;0.30;;;24.90;68.30;;;;;;4977461;28;20046;-50
2022/09/14 05:28:33;;;;;;;0.30;0.30;;;24.90;69.00;;;;;;4977286;28;20528;-52
2022/09/14 05:31:02;;;;;;;0.93;0.40;;;24.80;68.30;;;;;;4978963;28;20095;-52
2022/09/14 05:33:27;;;;;;;1.52;0.50;;;24.90;69.20;;;;;;4978233;28;20139;-54
2022/09/14 05:35:59;;;;;;;0.70;0.45;;;24.80;68.60;;;;;;4976997;28;20096;-49
2022/09/14 05:38:26;;;;;;;1.08;0.50;;;24.90;68.30;;;;;;4977648;28;20054;-51
2022/09/14 05:40:53;;;;;;;2.13;0.82;;;24.90;68.30;;;;;;4994984;28;20074;-55
2022/09/14 05:43:21;;;;;;;0.70;0.35;;;24.90;68.20;;;;;;4979855;28;20053;-43
2022/09/14 05:45:47;;;;;;;1.10;0.55;;;24.90;68.60;;;;;;4980111;28;20140;-43
2022/09/14 05:48:13;;;;;;;3.63;0.70;;;24.70;68.80;;;;;;4978997;28;20042;-42
2022/09/14 05:50:39;;;;;;;1.08;0.57;;;24.60;69.10;;;;;;4980384;28;20090;-43
2022/09/14 05:53:04;;;;;;;2.22;0.57;;;24.60;69.10;;;;;;4985354;28;20065;-42
2022/09/14 05:55:30;;;;;;;2.97;1.15;;;24.40;69.60;;;;;;4984961;28;20039;-43
2022/09/14 05:57:55;;;;;;;1.42;0.60;;;24.40;69.30;;;;;;4983949;28;20413;-42
2022/09/14 06:00:21;;;;;;;1.63;0.70;;;24.40;69.30;;;;;;4983512;28;20081;-43
2022/09/14 06:02:47;;;;;;;1.15;0.70;;;24.40;69.20;;;;;;4981744;28;20074;-47
2022/09/14 06:05:13;;;;;;;2.33;0.82;;;24.20;69.40;;;;;;4981795;28;20077;-43
2022/09/14 06:07:38;;;;;;;1.95;0.77;;;24.20;69.60;;;;;;4982366;28;20062;-42
2022/09/14 06:10:04;;;;;;;3.22;0.95;;;24.10;69.60;;;;;;4982570;28;20070;-43
2022/09/14 06:12:30;;;;;;;1.65;0.80;;;24.10;69.80;;;;;;4981411;28;20046;-42
2022/09/14 06:14:56;;;;;;;3.63;0.90;;;24.10;69.90;;;;;;4983063;28;20047;-42
2022/09/14 06:17:21;;;;;;;1.17;0.77;;;24.00;69.80;;;;;;4984042;28;20437;-42
2022/09/14 06:19:47;;;;;;;2.42;0.95;;;24.20;69.50;;;;;;4977830;28;20099;-43
2022/09/14 06:22:12;;;;;;;2.22;0.80;;;24.10;69.50;;;;;;4977803;28;20057;-42
2022/09/14 06:24:38;;;;;;;1.92;0.80;;;24.00;69.70;;;;;;4972725;28;20432;-42
2022/09/14 06:27:04;;;;;;;4.00;0.93;;;24.00;70.50;;;;;;4983116;28;20054;-43
2022/09/14 06:29:29;;;;;;;1.40;0.50;;;24.00;69.80;;;;;;4980098;28;20120;-42
2022/09/14 06:31:55;;;;;;;1.00;0.63;;;23.90;69.80;;;;;;4975168;28;20046;-42
2022/09/14 06:34:20;;;;;;;1.42;0.63;;;23.90;69.90;;;;;;4979484;28;20034;-42
2022/09/14 06:36:46;;;;;;;5.95;0.90;;;23.90;69.90;;;;;;4981607;28;20478;-43
2022/09/14 06:39:11;;;;;;;2.30;1.10;;;24.00;69.50;;;;;;4983098;28;20069;-42
2022/09/14 06:41:37;;;;;;;0.95;0.65;;;24.00;69.20;;;;;;4983963;28;20118;-46
2022/09/14 06:44:03;;;;;;;2.42;0.70;;;23.90;69.40;;;;;;4974040;28;20558;-42
2022/09/14 06:46:30;;;;;;;2.75;0.98;;;23.90;69.30;;;;;;4987649;28;20038;-43
2022/09/14 06:48:59;;;;;;;1.42;0.70;;;23.80;69.50;;;;;;4972535;28;20050;-43
2022/09/14 06:51:29;;;;;;;2.28;0.60;;;23.80;69.40;;;;;;4977022;28;20039;-43
2022/09/14 06:53:58;;;;;;;1.55;0.70;;;23.90;69.40;;;;;;4982607;28;20054;-43
2022/09/14 06:56:23;;;;;;;1.05;0.60;;;23.90;69.60;;;;;;4978403;28;20038;-41
2022/09/14 06:58:50;;;;;;;0.88;0.68;;;23.90;69.60;;;;;;4985836;28;21115;-42
2022/09/14 07:01:18;;;;;;;1.17;0.52;;;23.80;69.50;;;;;;4982671;28;20073;-43
2022/09/14 07:03:45;;;;;;;1.30;0.70;;;23.80;69.90;;;;;;4980171;28;20043;-43
2022/09/14 07:06:32;;;;;;;1.85;1.17;;;23.90;69.40;;;;;;4961944;28;20093;-43
2022/09/14 07:08:58;;;;;;;1.20;0.60;;;24.00;69.80;;;;;;4988852;28;20049;-43
2022/09/14 07:11:25;;;;;;;2.78;0.95;;;24.00;69.50;;;;;;4983943;28;20043;-42
2022/09/14 07:13:53;;;;;;;1.77;0.80;;;24.20;69.80;;;;;;5002791;28;20129;-42
2022/09/14 07:16:19;;;;;;;1.10;0.60;;;24.20;69.50;;;;;;4982654;28;20051;-43
2022/09/14 07:18:44;;;;;;;1.05;0.70;;;24.30;69.70;;;;;;4986571;28;20088;-42
2022/09/14 07:21:15;;;;;;;0.90;0.63;;;24.30;69.20;;;;;;4988549;28;20450;-42
2022/09/14 07:23:42;;;;;;;1.83;1.00;;;24.30;69.60;;;;;;4984221;28;20038;-42
2022/09/14 07:26:27;;;;;;;1.70;0.90;;;24.30;69.70;;;;;;4985584;28;20057;-45
2022/09/14 07:28:59;;;;;;;1.77;0.52;;;24.40;69.00;;;;;;4986211;28;20064;-42
2022/09/14 07:31:27;;;;;;;1.35;0.60;;;24.40;69.70;;;;;;4988716;28;20095;-43
2022/09/14 07:33:57;;;;;;;0.88;0.60;;;24.40;69.20;;;;;;4991405;28;20057;-42
2022/09/14 07:36:24;;;;;;;1.50;0.65;;;24.40;69.00;;;;;;4998073;28;20044;-43
2022/09/14 07:38:50;;;;;;;1.23;0.60;;;24.30;68.70;;;;;;4987421;28;20449;-43
2022/09/14 07:41:15;;;;;;;2.63;0.70;;;24.50;68.80;;;;;;4990132;28;20133;-43
2022/09/14 07:43:41;;;;;;;2.55;0.93;;;24.50;68.30;;;;;;4986730;28;20050;-43
2022/09/14 07:46:07;;;;;;;2.38;0.90;;;24.50;68.40;;;;;;4984265;28;20050;-43
2022/09/14 07:48:33;;;;;;;1.23;0.75;;;24.60;68.20;;;;;;4983969;28;20068;-42
2022/09/14 07:51:06;;;;;;;1.58;0.80;;;24.70;68.10;;;;;;4984828;28;20405;-42
2022/09/14 07:53:35;;;;;;;1.83;0.70;;;24.80;67.70;;;;;;4995168;28;20076;-43
2022/09/14 07:56:01;;;;;;;2.38;0.73;;;24.90;67.50;;;;;;5002714;28;20301;-46
2022/09/14 07:58:30;;;;;;;3.53;0.70;;;25.00;67.30;;;;;;5023496;28;20145;-43
2022/09/14 08:00:59;;;;;;;1.02;0.70;;;25.00;67.00;;;;;;4984625;28;20459;-43
2022/09/14 08:03:25;;;;;;;2.90;1.02;;;25.00;67.10;;;;;;4997134;28;20054;-43
2022/09/14 08:06:04;;;;;;;3.30;0.80;;;24.90;67.30;;;;;;4989652;28;20504;-43
2022/09/14 08:08:42;;;;;;;1.48;0.60;;;24.90;67.60;;;;;;4986684;28;20050;-43
2022/09/14 08:11:10;;;;;;;0.50;0.50;;;24.70;67.90;;;;;;4984344;28;20077;-55
2022/09/14 08:13:36;;;;;;;1.92;0.70;;;24.70;67.80;;;;;;4986083;28;20050;-54
2022/09/14 08:16:02;;;;;;;2.00;0.75;;;24.70;67.90;;;;;;4984475;28;20420;-53
2022/09/14 08:18:28;;;;;;;1.95;0.75;;;24.80;67.90;;;;;;4991665;28;20507;-56
2022/09/14 08:20:54;;;;;;;1.10;0.50;;;24.70;67.90;;;;;;4989283;28;20544;-58
2022/09/14 08:23:20;;;;;;;1.30;0.93;;;24.80;68.00;;;;;;4985185;28;20054;-53
2022/09/14 08:25:46;;;;;;;0.75;0.60;;;24.80;68.00;;;;;;4984285;28;20038;-43
2022/09/14 08:28:11;;;;;;;3.33;0.85;;;24.70;68.00;;;;;;4985256;28;20053;-58
2022/09/14 08:30:37;;;;;;;0.60;0.60;;;24.70;68.00;;;;;;4991597;28;20053;-58
2022/09/14 08:33:02;;;;;;;1.00;0.75;;;24.80;68.10;;;;;;4983667;28;20428;-54
2022/09/14 08:35:28;;;;;;;0.77;0.63;;;24.80;68.00;;;;;;4983799;28;20048;-58
2022/09/14 08:37:54;;;;;;;1.25;0.50;;;24.80;67.90;;;;;;4982763;28;20199;-59
2022/09/14 08:40:19;;;;;;;0.90;0.30;;;24.80;67.90;;;;;;4983918;28;20473;-57
2022/09/14 08:42:45;;;;;;;0.55;0.52;;;24.80;68.00;;;;;;4983692;28;20089;-60
2022/09/14 08:45:12;;;;;;;1.85;0.60;;;24.80;67.80;;;;;;4982786;28;20061;-58
2022/09/14 08:47:38;;;;;;;0.93;0.57;;;24.90;67.90;;;;;;4985110;28;20519;-57
2022/09/14 08:50:16;;;;;;;1.95;0.70;;;24.90;67.80;;;;;;4982980;28;20054;-59
2022/09/14 08:52:48;;;;;;;1.05;0.80;;;24.80;68.00;;;;;;4987202;28;20046;-53
2022/09/14 08:55:19;;;;;;;2.40;0.60;;;24.80;68.00;;;;;;4966825;28;20500;-57
2022/09/14 08:57:53;;;;;;;1.08;0.50;;;24.80;68.00;;;;;;4992317;28;20042;-51
2022/09/14 09:00:23;;;;;;;0.65;0.60;;;24.80;67.90;;;;;;4989746;28;20069;-59
2022/09/14 09:03:24;;;;;;;0.55;0.35;;;24.90;67.80;;;;;;4991406;28;20065;-55
2022/09/14 09:06:13;;;;;;;0.88;0.45;;;24.90;67.60;;;;;;5004203;28;20046;-60
2022/09/14 09:09:01;;;;;;;0.70;0.47;;;24.90;67.70;;;;;;4987468;28;20045;-54
2022/09/14 09:11:32;;;;;;;1.25;0.50;;;24.90;67.70;;;;;;5004212;28;20050;-62
2022/09/14 09:13:58;;;;;;;0.82;0.60;;;24.90;67.80;;;;;;5003034;28;22462;-56
2022/09/14 09:16:24;;;;;;;1.58;0.50;;;24.90;67.90;;;;;;5003559;28;20094;-56
2022/09/14 09:18:52;;;;;;;1.67;0.60;;;24.90;68.00;;;;;;5000299;28;20416;-57
2022/09/14 09:21:23;;;;;;;2.08;0.73;;;24.90;67.90;;;;;;4995393;28;20112;-53
2022/09/14 09:23:48;;;;;;;2.25;0.60;;;24.90;67.60;;;;;;5001891;28;20555;-56
2022/09/14 09:26:30;;;;;;;0.52;0.50;;;24.90;67.70;;;;;;4985541;28;20052;-61
2022/09/14 09:28:59;;;;;;;1.15;0.60;;;24.90;67.80;;;;;;5001717;28;20042;-57
2022/09/14 09:31:44;;;;;;;1.20;0.70;;;24.90;68.00;;;;;;4988237;28;20251;-57
2022/09/14 09:34:14;;;;;;;1.13;0.70;;;24.90;67.80;;;;;;5003432;28;20052;-59
2022/09/14 09:36:45;;;;;;;1.38;0.65;;;24.90;67.90;;;;;;5004175;28;20737;-58
2022/09/14 09:39:11;;;;;;;0.88;0.47;;;24.90;68.00;;;;;;4990329;28;20422;-54
2022/09/14 09:41:43;;;;;;;1.20;0.50;;;24.90;67.90;;;;;;4968856;28;20042;-53
2022/09/14 09:44:09;;;;;;;0.77;0.43;;;24.90;67.70;;;;;;4981042;28;20140;-55
2022/09/14 09:46:48;;;;;;;1.35;0.60;;;25.00;67.90;;;;;;4982351;28;20125;-52
2022/09/14 09:49:22;;;;;;;1.45;0.70;;;24.90;67.90;;;;;;4983146;28;20604;-60
2022/09/14 09:51:48;;;;;;;1.38;0.43;;;24.90;67.90;;;;;;4988327;28;20049;-52
2022/09/14 09:54:16;;;;;;;0.70;0.40;;;24.90;67.90;;;;;;4992748;28;20104;-43
2022/09/14 09:56:54;;;;;;;1.35;0.50;;;25.00;67.60;;;;;;4991689;28;20116;-41
2022/09/14 09:59:35;;;;;;;1.20;0.45;;;25.00;68.10;;;;;;4984135;28;20097;-43
2022/09/14 10:02:13;;;;;;;1.10;0.40;;;25.00;67.60;;;;;;4996279;28;20133;-43
2022/09/14 10:04:53;;;;;;;0.70;0.38;;;25.00;67.60;;;;;;5000310;28;20129;-43
2022/09/14 10:07:20;;;;;;;0.80;0.47;;;25.00;67.80;;;;;;4989514;28;20519;-43
2022/09/14 10:09:49;;;;;;;0.50;0.30;;;25.00;67.70;;;;;;4980980;28;20050;-43
2022/09/14 10:12:15;;;;;;;0.55;0.50;;;25.00;68.10;;;;;;4981956;28;20038;-47
2022/09/14 10:14:41;;;;;;;3.25;0.60;;;25.00;67.60;;;;;;4994867;28;20124;-43
2022/09/14 10:17:17;;;;;;;0.70;0.40;;;25.00;67.80;;;;;;4983971;28;20175;-57
2022/09/14 10:19:51;;;;;;;1.05;0.47;;;25.00;67.80;;;;;;4989208;28;20034;-28
2022/09/14 10:22:26;;;;;;;0.73;0.32;;;25.00;67.70;;;;;;4985240;28;20059;-56
2022/09/14 10:25:19;;;;;;;1.27;0.52;;;25.00;67.70;;;;;;4988635;28;20042;-58
2022/09/14 10:28:02;;;;;;;0.68;0.40;;;25.00;67.60;;;;;;4980281;28;20069;-58
2022/09/14 10:30:44;;;;;;;0.65;0.43;;;25.00;67.80;;;;;;4985161;28;20512;-60
2022/09/14 10:33:12;;;;;;;0.82;0.50;;;25.00;67.90;;;;;;4966438;28;20050;-55
2022/09/14 10:35:45;;;;;;;1.30;0.70;;;25.00;67.60;;;;;;4981516;28;20054;-52
2022/09/14 10:38:45;;;;;;;0.87;0.50;;;25.10;67.80;;;;;;4975983;28;20619;-53
2022/09/14 10:41:45;;;;;;;1.98;0.70;;;25.00;67.50;;;;;;4977601;28;20046;-56
2022/09/14 10:44:23;;;;;;;1.17;0.50;;;25.10;68.10;;;;;;4982227;28;20054;-57
2022/09/14 10:47:26;;;;;;;1.08;0.80;;;25.00;69.20;;;;;;4981388;28;20046;-59
2022/09/14 10:50:40;;;;;;;1.20;0.50;;;25.00;68.80;;;;;;4993619;28;20035;-58
2022/09/14 10:53:47;;;;;;;1.35;0.50;;;25.00;69.00;;;;;;5005933;28;20059;-58
2022/09/14 10:56:22;;;;;;;0.75;0.40;;;25.00;69.00;;;;;;5036124;28;20084;-58
2022/09/14 10:59:09;;;;;;;1.52;0.70;;;25.00;69.50;;;;;;5036836;28;20049;-56
2022/09/14 11:02:12;;;;;;;1.05;0.50;;;25.00;69.60;;;;;;5037675;28;20045;-55
2022/09/14 11:04:56;;;;;;;1.70;0.73;;;25.00;69.50;;;;;;5036825;28;20801;-57
2022/09/14 11:07:40;;;;;;;1.13;0.63;;;25.10;69.00;;;;;;5039137;28;20048;-56
2022/09/14 11:10:23;;;;;;;;;;;25.10;69.30;;;;;;5036204;28;20067;-58
2022/09/14 11:13:39;;;;;;;1.92;0.30;;;25.10;68.80;;;;;;5032833;28;19921;-56
2022/09/14 11:16:27;;;;;;;0.85;0.50;;;25.10;69.20;;;;;;4995298;28;20049;-53
2022/09/14 11:19:11;;;;;;;1.38;0.65;;;25.10;69.00;;;;;;4996658;28;20546;-59
2022/09/14 11:21:51;;;;;;;2.45;0.60;;;25.10;69.10;;;;;;4993767;28;20042;-58
2022/09/14 11:24:21;;;;;;;0.68;0.40;;;25.10;69.10;;;;;;4979072;28;20433;-58
2022/09/14 11:27:05;;;;;;;1.05;0.40;;;25.20;69.00;;;;;;4976826;28;20042;-56
2022/09/14 11:29:31;;;;;;;1.27;0.40;;;25.10;69.40;;;;;;4981733;28;20096;-56
2022/09/14 11:32:03;;;;;;;2.92;0.60;;;25.20;68.80;;;;;;4983135;28;20092;-55
2022/09/14 11:34:32;;;;;;;0.63;0.40;;;25.20;68.80;;;;;;5022421;28;20622;-55
2022/09/14 11:37:00;;;;;;;0.60;0.40;;;25.20;68.30;;;;;;5019893;28;20098;-57
2022/09/14 11:39:28;;;;;;;0.90;0.43;;;25.30;69.20;;;;;;5006970;28;20040;-57
2022/09/14 11:42:02;;;;;;;1.80;0.73;;;25.30;68.50;;;;;;5020009;28;20202;-50
2022/09/14 11:44:29;;;;;;;1.55;0.60;;;25.20;68.50;;;;;;5018587;28;20121;-53
2022/09/14 11:47:19;;;;;;;1.30;0.40;;;25.20;68.40;;;;;;5006762;28;20046;-57
2022/09/14 11:50:01;;;;;;;1.63;0.40;;;25.30;68.70;;;;;;4994758;28;20157;-55
2022/09/14 11:52:28;;;;;;;0.85;0.43;;;25.30;68.40;;;;;;4974848;28;20108;-53
2022/09/14 11:54:54;;;;;;;0.45;0.40;;;25.30;68.60;;;;;;4977097;28;20057;-49
2022/09/14 11:57:24;;;;;;;2.47;0.70;;;25.30;68.30;;;;;;4633283;28;10000315;-59
2022/09/14 11:59:55;;;;;;;1.10;0.40;;;25.30;68.60;;;;;;4978734;28;20125;-45
2022/09/14 12:02:26;;;;;;;0.70;0.57;;;25.30;69.30;;;;;;4997477;28;20053;-42
2022/09/14 12:05:04;;;;;;;0.45;0.32;;;25.40;68.50;;;;;;4976164;28;20051;-42
2022/09/14 12:07:41;;;;;;;1.08;0.38;;;25.40;68.40;;;;;;4981808;28;20074;-43
2022/09/14 12:10:13;;;;;;;2.08;0.40;;;25.30;68.20;;;;;;4980075;28;20145;-43
2022/09/14 12:13:05;;;;;;;3.70;0.60;;;25.40;68.70;;;;;;4983355;28;20046;-44
2022/09/14 12:15:32;;;;;;;0.55;0.40;;;25.40;68.60;;;;;;4987179;28;20117;-44
2022/09/14 12:18:04;;;;;;;0.60;0.50;;;25.40;68.30;;;;;;4983001;28;20092;-44
2022/09/14 12:20:58;;;;;;;1.20;0.30;;;25.40;68.30;;;;;;4983778;28;20111;-43
2022/09/14 12:23:37;;;;;;;0.70;0.70;;;25.40;68.10;;;;;;4983360;28;20209;-44
2022/09/14 12:26:09;;;;;;;1.00;0.30;;;25.40;68.00;;;;;;4983191;28;20042;-55
2022/09/14 12:28:35;;;;;;;1.08;0.30;;;25.40;67.90;;;;;;4984292;28;20129;-54
2022/09/14 12:31:03;;;;;;;0.80;0.30;;;25.40;68.10;;;;;;4980959;28;20117;-56
2022/09/14 12:33:31;;;;;;;1.23;0.50;;;25.50;67.90;;;;;;4983169;28;20057;-44
2022/09/14 12:36:21;;;;;;;1.95;0.40;;;25.40;67.80;;;;;;4983809;28;20054;-50
2022/09/14 12:38:49;;;;;;;1.35;0.50;;;25.40;67.70;;;;;;4980645;28;20045;-46
2022/09/14 12:41:18;;;;;;;1.52;0.75;;;25.50;67.80;;;;;;4981032;28;20053;-58
2022/09/14 12:43:54;;;;;;;1.15;0.60;;;25.50;67.60;;;;;;4979603;28;20532;-55
2022/09/14 12:46:19;;;;;;;0.98;0.43;;;25.50;67.60;;;;;;4979737;28;20164;-57
2022/09/14 12:48:48;;;;;;;0.90;0.55;;;25.50;67.60;;;;;;4985683;28;20121;-60
2022/09/14 12:51:31;;;;;;;1.17;0.40;;;25.50;67.70;;;;;;4978221;28;20121;-54
2022/09/14 12:54:06;;;;;;;0.73;0.40;;;25.50;67.60;;;;;;4986467;28;20039;-56
2022/09/14 12:56:50;;;;;;;1.30;0.40;;;25.50;67.60;;;;;;4981985;28;20053;-61
2022/09/14 12:59:21;;;;;;;;;;;25.50;67.60;;;;;;4980373;28;20111;-50
2022/09/14 13:01:50;;;;;;;0.68;0.30;;;25.50;67.70;;;;;;4983249;28;20388;-56
2022/09/14 13:04:35;;;;;;;1.40;0.30;;;25.50;67.60;;;;;;4979506;28;20173;-58
2022/09/14 13:07:04;;;;;;;0.70;0.40;;;25.50;67.50;;;;;;4981075;28;20125;-58
2022/09/14 13:09:30;;;;;;;0.82;0.40;;;25.50;67.50;;;;;;4980372;28;20038;-48